• Join FlightAware (Why Join?)
  • Login
  • US Flag 
02:21AM EST


 

Airport Tracker/Info


-or-


 

Live Flight TrackerFlight Track Log ✈ FSR411 ✈ 29-Jun-2014 ✈ KBMI - KGVL

Flight Track Log - Related Links

Times and Time Zones

All times are in EDT time to prevent confusion due to time zone crossing. See the FSR411 flight status page for this flight to view local times or setup timezone preferences in your user account.

Time Position Orientation Groundspeed Altitude Reporting Facility
EDT Latitude Longitude Course Direction KTS MPH feet Rate Location/Type
04:48PM 40.4467 -88.9219 175° South 222 255 2,500  Level Kansas City Center
04:49PM 40.3969 -88.9164 175° South 194 223 5,800 2,940 Climbing Kansas City Center
04:50PM 40.3453 -88.8683 145° Southeast 219 252 8,600 2,640 Climbing Kansas City Center
04:51PM 40.2806 -88.8072 144° Southeast 273 314 11,300 2,940 Climbing Kansas City Center
04:52PM 40.1878 -88.7181 144° Southeast 335 386 14,600 3,060 Climbing Kansas City Center
04:53PM 40.0994 -88.6347 144° Southeast 378 435 17,700 3,060 Climbing Kansas City Center
04:54PM 40.0083 -88.5511 145° Southeast 394 453 21,000 2,460 Climbing Kansas City Center
04:56PM 39.9167 -88.4633 144° Southeast 402 463 22,900 960 Climbing Kansas City Center
04:57PM 39.8189 -88.3700 144° Southeast 427 491 23,000 540 Climbing Kansas City Center
04:58PM 39.7197 -88.2775 144° Southeast 436 502 24,000 960 Climbing Kansas City Center
04:59PM 39.6133 -88.1792 145° Southeast 425 489 25,000 660 Climbing Kansas City Center
04:59PM 39.5478 -88.1233 147° Southeast 426 490 25,100 1,260 Climbing Indianapolis Center
05:00PM 39.4456 -88.0297 145° Southeast 445 512 27,000 2,160 Climbing Indianapolis Center
05:01PM 39.3506 -87.9428 145° Southeast 443 510 29,600 1,980 Climbing Indianapolis Center
05:02PM 39.2519 -87.8519 144° Southeast 439 505 31,100 1,380 Climbing Indianapolis Center
05:03PM 39.1492 -87.7589 145° Southeast 441 507 32,500 1,260 Climbing Indianapolis Center
05:04PM 39.0436 -87.6639 145° Southeast 455 524 33,800 1,560 Climbing Indianapolis Center
05:05PM 38.9178 -87.5503 145° Southeast 457 526 35,800 1,740 Climbing Indianapolis Center
05:06PM 38.8150 -87.4583 145° Southeast 456 525 37,500 1,500 Climbing Indianapolis Center
05:07PM 38.7169 -87.3694 145° Southeast 440 506 38,900 1,200 Climbing Indianapolis Center
05:08PM 38.6175 -87.2803 145° Southeast 438 504 40,000 960 Climbing Indianapolis Center
05:09PM 38.5200 -87.1947 146° Southeast 430 495 40,900 480 Climbing Indianapolis Center
05:10PM 38.4231 -87.1103 146° Southeast 430 495 41,000  Climbing Indianapolis Center
05:11PM 38.3194 -87.0186 145° Southeast 437 503 41,000  Level Indianapolis Center
05:13PM 38.1922 -86.9072 145° Southeast 451 519 41,000  Level Indianapolis Center
05:14PM 38.0911 -86.8231 147° Southeast 458 527 41,000  Level Indianapolis Center
05:15PM 37.9867 -86.7369 147° Southeast 452 520 41,000  Level Indianapolis Center
05:16PM 37.8817 -86.6511 147° Southeast 452 520 41,000  Level Indianapolis Center
05:16PM 37.8400 -86.6158 146° Southeast 451 519 41,000  Level Indianapolis Center
05:17PM 37.7161 -86.5150 147° Southeast 451 519 41,000  Level Indianapolis Center
05:18PM 37.6114 -86.4289 147° Southeast 450 518 41,000  Level Indianapolis Center
05:19PM 37.5069 -86.3431 147° Southeast 447 514 41,000  Level Indianapolis Center
05:20PM 37.4011 -86.2586 148° Southeast 446 513 41,000  Level Indianapolis Center
05:21PM 37.3131 -86.1869 147° Southeast 446 513 41,000  Level Memphis Center
05:22PM 37.2086 -86.1019 147° Southeast 446 513 41,000  Level Memphis Center
05:23PM 37.1014 -86.0158 147° Southeast 446 513 41,000  Level Memphis Center
05:24PM 36.9942 -85.9300 147° Southeast 447 514 41,000  Level Memphis Center
05:25PM 36.8889 -85.8464 148° Southeast 447 514 41,000  Level Memphis Center
05:26PM 36.7811 -85.7600 147° Southeast 448 516 41,000 -300 Level Memphis Center
05:28PM 36.6050 -85.6239 148° Southeast 447 514 40,300 -660 Descending Atlanta Center
05:28PM 36.5375 -85.5667 146° Southeast 455 524 39,600 -1,260 Descending Indianapolis Center
05:29PM 36.4264 -85.4803 148° Southeast 464 534 38,300 -1,320 Descending Indianapolis Center
05:30PM 36.3189 -85.3956 148° Southeast 464 534 36,900 -1,500 Descending Indianapolis Center
05:31PM 36.2114 -85.3131 148° Southeast 462 532 35,300 -1,800 Descending Indianapolis Center
05:33PM 36.0839 -85.2133 148° Southeast 456 525 33,300 -1,140 Descending Indianapolis Center
05:34PM 35.9850 -85.1364 148° Southeast 453 521 33,000 -360 Descending Indianapolis Center
05:35PM 35.8417 -85.0250 148° Southeast 452 520 32,500 -900 Descending Atlanta Center
05:36PM 35.7358 -84.9444 148° Southeast 447 514 31,000 -1,440 Descending Atlanta Center
05:37PM 35.6403 -84.8692 147° Southeast 453 521 29,700 -1,440 Descending Atlanta Center
05:38PM 35.5325 -84.7892 149° Southeast 443 510 28,200 -1,560 Descending Atlanta Center
05:39PM 35.4244 -84.7064 148° Southeast 448 516 26,600 -1,740 Descending Atlanta Center
05:40PM 35.3183 -84.6242 148° Southeast 448 516 24,800 -1,380 Descending Atlanta Center
05:41PM 35.2164 -84.5447 148° Southeast 448 516 23,900 -900 Descending Atlanta Center
05:42PM 35.1125 -84.4653 148° Southeast 448 516 23,000 -480 Descending Atlanta Center
05:43PM 35.0147 -84.3914 148° Southeast 441 507 23,000 -600 Level Atlanta Center
05:44PM 34.9147 -84.3150 148° Southeast 430 495 21,800 -2,400 Descending Atlanta Center
05:45PM 34.8147 -84.2386 148° Southeast 425 489 18,200 -3,720 Descending Atlanta Center
05:46PM 34.7167 -84.1753 152° Southeast 420 483 14,400 -3,600 Descending Atlanta Center
05:47PM 34.6250 -84.1119 150° Southeast 399 459 11,100 -2,520 Descending Atlanta Center
05:48PM 34.5436 -84.0514 148° Southeast 373 429 9,400 -1,920 Descending Atlanta Center
05:49PM 34.4747 -83.9933 145° Southeast 335 386 7,300 -1,680 Descending Atlanta Center
05:50PM 34.4078 -83.9431 148° Southeast 304 350 6,100 -960 Descending Atlanta Center
05:51PM 34.3306 -83.8803 146° Southeast 298 343 5,400 -720 Descending Atlanta Center